O'Weekend du Haut-Jura - Moyenne Distance Longchaumois (39) - D35

Date : 31/05/2014

Place Nom Licence Catégorie Club Temps CN à J-60 Points Différence Nouveau CN
1 BEAUVISAGE Lauriane 11307 D20 7807IF 0:29:28 6674 7458 +784 6641
2 HABERKORN Chloé 10396 D20 2105BO 0:29:39 6274 7412 +1138 6400
3 POIROT Delphine 15979 D20 8809LO 0:30:26 6451 7222 +771 6594
4 DEVRIEUX Naïs 7672 D20 4203RA 0:32:33 5806 6752 +946 5759
5 CLOUARD Lucile 8551 D20 7807IF 0:33:23 6179 6583 +404 6026
6 GIRARD Lucille 19689 D20 3705CE 0:34:59 5809 6282 +473 5860
7 LOTERIE Laurine 7045 D20 5907NO 0:38:41 5837 5681 -156 5654
8 IMBERT Adeline 6522 D35 2606RA 0:40:52 5760 5378 -382 5725
9 PARIGOT Virginie 2722 D35 2109BO 0:44:55 5038 4893 -145 5028
10 LEMERCIER Anne-Claire 2473 D35 5407LO 0:44:57 4467 4889 +422 4465
11 CHATELON Lucile 1557 D35 4203RA 0:46:28 5908 4730 -1178 5844
12 HUMMEL-AZAIS Margaux 18432 D20 2517FC 0:46:48 6035 4696 -1339 5789
13 TINCHANT Estelle 745 D35 2517FC 0:49:06 5155 4476 -679 5018
14 DESRUMAUX Marie 14227 D35 5906NO 0:49:53 5286 4406 -880 5320
15 VENON Marion 4012 D35 2105BO 0:50:09 3674 4382 +708 4202
16 KUCINSKA Laura 29171 D35 9502IF 0:54:47 2675 4012 +1337 3513
17 STEIN Virginie 13061 D35 5703LO 0:55:07 3505 3987 +482 3910
18 DESRUMAUX Celine 15795 D35 5906NO 0:55:17 4925 3975 -950 4997
19 MOREL Eugenie 15479 D20 5407LO 0:55:48 4485 3939 -546 4772
20 GUILMAIN Melanie 20572 D20 6208NO 0:58:00 4177 3789 -388 4206
21 RIVOLLIER Isaline 22451 D20 4201RA 1:01:33 4580 3571 -1009 4565
22 BOVERO Severine 17002 D35 4201RA 1:03:23 5337 3467 -1870 5337
23 LONGERE Severine 11415 D35 6906RA 1:08:35 0 3204 3138
24 GAUDRILLIER Laurence 19565 D35 7305RA 1:08:37 4040 3203 -837 3892
25 GAFFURI Anne-Laure 14576 D35 9404IF 1:12:46 0 3020 0
26 ROBIN Mélanie 24547 D35 6911RA 1:15:11 2547 2923 +376 2707
27 EDIAR Helene 14651 D35 9109IF 1:15:28 4028 2912 -1116 3961
28 LEFEVRE Magali 2696 D35 2105BO 1:15:44 3511 2902 -609 3872
29 POURRE Marion 10077 D20 2508FC 1:16:05 3805 2889 -916 3858
30 DONET Elodie 26938 D20 2109BO 1:17:59 3644 2818 -826 3967
31 DEJARDIN Emilie 10863 D20 3811RA 1:18:54 3184 2785 -399 3203
32 OSADCZUK Clotilde 21273 D35 6307AU 1:24:26 3567 2603 -964 3512
33 MAUVILLY Karine 18931 D35 2508FC 1:26:03 3132 2554 -578 2824
34 DECHAVANNE Nathalie 13284 D35 6911RA 1:34:50 2317 0
35 PECHSTEIN Alice 9619 D35 5402LO 1:37:16 2865 2260 -605 2285
36 ASTOUL Sandrine 16801 D35 6911RA 1:38:37 2229 1864
37 PENNET Celine 15655 D35 6911RA 1:41:11 2865 2172 -693 2860
38 GOURLAIN Mathilde 18299 D20 6205NO 1:51:11 3226 1977 -1249 3087
39 FLEURY Caroline 24095 D35 6913RA 1:51:37 2656 1969 -687 2773
40 ROUBOT Anaïs 25182 D20 2109BO 1:57:15 2277 1874 -403 2499
41 FINAS Odile 29479 D20 5907NO 2:16:59 0 1604 0